Whale Point, California Weather observations

Data are for observation ending at time listed.
 Day   Time    Ave.   Ave.  Ave.  Vector   Max.   Stn.    Total    Solar   Ave.  
  of    of     Air    Rel.  Wind   Wind    Wind   Baro.  Precip.   Rad.    Soil  
Year   Day     Temp.  Hum.  Speed  Dir.    Gust   Pres.                    Temp. 
2017   (PST)    F      %     mph   deg.    mph     mb.     in.     W/m2     F   
------------------------------------------------------------------------------
 113    3:40   50.7    86    4.4    44      7.7   991.9    0.00       0    61.4
 113    3:50   51.0    86    6.4    54      9.1   991.9    0.00       0    61.4
 113    4:00   52.0    83    8.6    70     12.4   991.5    0.00       0    61.3
 113    4:10   52.7    79    3.5   164      8.6   991.9    0.00       0    61.2
 113    4:20   50.6    84    3.9   156      9.4   991.9    0.00       0    61.1
 113    4:30   50.2    87    4.9   135      9.0   991.9    0.00       0    61.1
 113    4:40   50.1    87    2.9   124      5.8   992.2    0.00       0    61.0
 113    4:50   50.0    87    2.7    79      5.5   992.2    0.00       0    61.0
 113    5:00   50.0    86    4.4    57      8.0   992.2    0.00       0    60.9
 113    5:10   50.1    86    2.1    64      7.1   992.2    0.00       0    60.8
 113    5:20   50.5    85    7.0    54     10.2   992.2    0.00       1    60.7
 113    5:30   51.2    82    4.3    72     10.3   992.2    0.00       6    60.7
 113    5:40   51.7    79    2.4   181      7.3   992.6    0.00      21    60.6
 113    5:50   50.3    84    4.5   186      8.7   992.9    0.00      33    60.5
 113    6:00   50.1    86    5.0   158      7.7   992.9    0.00      43    60.5
 113    6:10   50.3    84    3.7    57      6.3   992.9    0.00      53    60.4
 113    6:20   50.7    82    5.5    21      9.3   992.9    0.00      67    60.3
 113    6:30   50.8    82    2.6    57      7.2   992.9    0.00      79    60.3
 113    6:40   52.2    75    1.6   158      4.0   992.9    0.00      86    60.2
 113    6:50   52.2    76    0.9   167      2.2   992.9    0.00      95    60.1
 113    7:00   51.8    79    1.7   210      3.3   992.9    0.00     113    60.1
 113    7:10   51.9    79    1.2   213      4.8   992.9    0.00     171    60.0
 113    7:20   52.1    79    2.0   214      4.9   993.2    0.00     259    59.9
 113    7:30   52.6    78    2.7   183      4.7   993.2    0.00     331    59.9
 113    7:40   54.1    73    2.9   132      5.0   993.2    0.00     343    59.8
 113    7:50   56.1    69    1.1    29      4.4   993.6    0.00     396    59.8
 113    8:00   55.8    71    1.6   211      3.4   993.6    0.00     433    59.7
 113    8:10   54.6    78    2.1   198      4.0   993.6    0.00     408    59.7
 113    8:20   54.1    79    2.6   190      6.1   993.6    0.00     430    59.7
 113    8:30   54.2    78    4.0   173      7.2   993.6    0.00     471    59.6
 113    8:40   54.2    77    2.2   191      5.7   993.6    0.00     470    59.7
 113    8:50   54.2    76    2.7   164      8.1   993.9    0.00     428    59.7
 113    9:00   55.7    72    3.0   163      7.7   993.9    0.00     615    59.6
 113    9:10   56.7    70    2.4   187      5.7   993.9    0.00     742    59.7
 113    9:20   57.1    70    2.5   196      5.6   993.9    0.00     783    59.7
 113    9:30   56.0    72    2.4   195      4.7   994.2    0.00     805    59.7
 113    9:40   57.8    68    2.7   184      4.9   994.2    0.00     830    59.7
 113    9:50   56.2    71    3.5   200      5.9   994.2    0.00     854    59.8
 113   10:00   57.0    69    2.8   187      5.0   994.6    0.00     873    59.8
 113   10:10   57.7    68    3.3   188      6.3   994.6    0.00     899    59.8
 113   10:20   57.9    67    3.8   201      6.5   994.6    0.00     904    59.9
 113   10:30   56.6    72    3.6   202      5.8   994.6    0.00     896    59.9
 113   10:40   57.1    70    4.3   204      7.3   994.6    0.00     878    59.9
 113   10:50   57.5    69    4.7   204      7.9   994.9    0.00     926    59.9
 113   11:00   57.9    69    4.0   215      7.5   994.9    0.00     936    60.0
 113   11:10   57.6    69    3.7   245      7.0   994.9    0.00     942    60.0
 113   11:20   58.4    70    4.8   218      8.5   994.9    0.00     957    60.0
 113   11:30   58.6    69    3.8   216      8.8   994.9    0.00     956    60.0
 113   11:40   58.4    70    5.6   246     11.9   994.9    0.00     975    60.1
 113   11:50   58.0    70    6.4   271     14.3   994.9    0.00     982    60.1
 113   12:00   57.0    71    5.9   285     13.8   994.9    0.00     979    60.2
 113   12:10   56.8    72    6.1   282     14.0   994.9    0.00     985    60.3
 113   12:20   57.4    72    5.1   272     14.2   994.9    0.00     989    60.4
 113   12:30   58.5    70    5.0   287     12.0   994.9    0.00     996    60.5
 113   12:40   58.0    70    4.9   284     11.2   994.9    0.00    1004    60.7
 113   12:50   58.5    68    5.9   270     11.9   994.9    0.00     994    60.8
 113   13:00   58.0    68    6.4   299     15.0   994.9    0.00     988    61.0
 113   13:10   57.6    70    5.4   355     16.1   994.9    0.00     963    61.2
 113   13:20   58.0    69    7.2   340     24.4   994.9    0.00     948    61.4
 113   13:30   56.6    72   10.9   342     22.4   995.3    0.00     946    61.6
 113   13:40   56.8    73    6.9   333     21.3   994.9    0.00     930    61.8
 113   13:50   58.9    70    5.1   278     12.1   994.9    0.00     910    62.0
 113   14:00   59.5    69    5.0   300     11.2   994.9    0.00     884    62.2
 113   14:10   59.5    69    5.9   281     10.6   994.6    0.00     870    62.4
 113   14:20   58.4    70    5.8   272     12.9   994.6    0.00     851    62.6
 113   14:30   58.4    69    6.0   324     15.9   994.2    0.00     835    62.8
 113   14:40   57.6    71    5.7   329     16.8   994.2    0.00     806    63.0
 113   14:50   57.0    71   10.4   352     26.5   994.2    0.00     778    63.2
 113   15:00   57.0    72    6.4   338     18.9   994.2    0.00     718    63.4
 113   15:10   57.3    70    9.7   329     18.0   994.2    0.00     724    63.6
 113   15:20   56.1    73   10.1   317     27.5   994.2    0.00     684    63.8
 113   15:30   56.4    72    7.5   331     17.2   994.2    0.00     660    64.0
 113   15:40   59.0    70    4.0   290     14.6   993.9    0.00     635    64.2
 113   15:50   57.3    70    5.5   328     15.1   993.9    0.00     258    64.3
 113   16:00   56.1    72    6.3   322     17.7   993.9    0.00     511    64.5
 113   16:10   56.8    71    6.8   322     15.3   993.9    0.00     513    64.7
 113   16:20   57.4    70    5.7   319     16.2   993.9    0.00     491    64.8
 113   16:30   55.9    72    7.4   318     17.3   993.9    0.00     216    64.9
 113   16:40   55.3    74    4.4   287     14.8   993.9    0.00     165    65.0
 113   16:50   56.4    72    3.4   294      8.6   993.9    0.00     288    65.1
 113   17:00   56.9    71    6.7   314     17.3   993.9    0.00     292    65.2
 113   17:10   56.9    71    3.6   304      9.0   993.6    0.00     300    65.3
 113   17:20   57.5    70    4.2   298     11.0   993.6    0.00     211    65.4
 113   17:30   56.1    73    2.8   285      7.2   993.6    0.00      94    65.4
 113   17:40   56.5    73    1.6   298      4.7   993.2    0.00     207    65.5
 113   17:50   57.0    71    3.9   274      9.5   993.2    0.00      97    65.5
 113   18:00   55.0    74    4.1   274      9.2   993.2    0.00      55    65.6
 113   18:10   54.4    75    1.5   296      7.7   993.2    0.00      42    65.6
 113   18:20   54.3    76    0.3    55      1.4   993.2    0.00      43    65.7
 113   18:30   54.3    77    0.7   165      2.2   993.2    0.00      21    65.7
 113   18:40   53.7    78    1.0   174      3.9   993.2    0.00      12    65.7
 113   18:50   53.1    79    1.4   130      3.8   993.2    0.00       3    65.7
 113   19:00   52.8    79    1.1   148      2.2   993.2    0.00       1    65.7
 113   19:10   52.6    79    0.2    38      1.2   993.2    0.00       0    65.6
 113   19:20   52.5    80    0.5    68      2.7   993.2    0.00       0    65.6
 113   19:30   52.4    81    0.4   178      1.8   993.6    0.00       0    65.5
 113   19:40   51.9    82    1.2   160      3.1   993.6    0.00       0    65.4
 113   19:50   51.5    82    1.5   140      3.4   993.6    0.00       0    65.4
 113   20:00   51.7    81    1.9    59      3.5   993.9    0.00       0    65.4
 113   20:10   52.2    81    3.6    75      6.9   993.6    0.00       0    65.2
 113   20:20   52.0    81    1.3    41      3.8   993.9    0.00       0    65.2
 113   20:30   52.0    79    0.8   118      3.0   993.6    0.00       0    65.1
 113   20:40   51.8    80    0.7   210      1.8   993.9    0.00       0    65.0
 113   20:50   51.6    80    1.4   138      3.2   993.9    0.00       0    64.9
 113   21:00   51.5    78    2.1   250      6.4   994.2    0.00       0    64.8
 113   21:10   52.2    75    5.0   360     17.5   994.2    0.00       0    64.7
 113   21:20   52.5    73    2.1   195      6.6   994.2    0.00       0    64.6
 113   21:30   52.4    73    2.6   103      8.1   993.9    0.00       0    64.5
 113   21:40   51.8    75    1.1   254      4.5   994.2    0.00       0    64.4
 113   21:50   51.3    76    3.3   268      8.0   994.2    0.00       0    64.3
 113   22:00   50.5    79    1.3   188      3.9   994.6    0.00       0    64.2
 113   22:10   50.4    78    2.1   172      4.9   994.6    0.00       0    64.1
 113   22:20   49.9    79    1.9    50      7.2   994.6    0.00       0    64.0
 113   22:30   50.1    78    1.8   132      4.1   994.6    0.00       0    63.9
 113   22:40   50.6    75    2.5    63      4.6   993.9    0.00       0    63.8
 113   22:50   50.4    75    0.9    48      2.9   994.2    0.00       0    63.7
 113   23:00   50.0    77    0.7    83      2.1   994.2    0.00       0    63.6
 113   23:10   49.9    78    1.5    96      4.5   994.2    0.00       0    63.5
 113   23:20   50.1    78    2.8    75      5.7   994.2    0.00       0    63.4
 113   23:30   50.2    76    2.1   140      4.7   993.9    0.00       0    63.3
 113   23:40   49.3    79    2.4   144      4.2   994.2    0.00       0    63.2
 113   23:50   49.3    79    1.3   135      3.4   994.2    0.00       0    63.1
 114    0:00   49.3    79    1.1   136      2.6   994.2    0.00       0    63.0
 114    0:10   49.2    80    1.5   115      2.7   994.2    0.00       0    62.9
 114    0:20   49.3    79    1.1    52      1.8   994.2    0.00       0    62.8
 114    0:30   49.4    79    0.1   121      1.2   994.2    0.00       0    62.7
 114    0:40   49.4    79    1.4   115      2.6   993.9    0.00       0    62.6
 114    0:50   49.5    78    0.8   141      2.3   994.2    0.00       0    62.5
 114    1:00   48.9    80    1.9   125      3.4   994.2    0.00       0    62.4
 114    1:10   49.4    78    3.7    73      8.2   993.9    0.00       0    62.3
 114    1:20   48.9    72    6.1    59      9.1   993.6    0.00       0    62.2
 114    1:30   48.5    76    1.9   172      5.3   993.6    0.00       0    62.0
 114    1:40   48.8    77    2.2   141      4.2   993.9    0.00       0    62.0
 114    1:50   49.3    76    4.2    70      6.9   993.6    0.00       0    61.9
 114    2:00   49.4    72    2.3    91      5.9   993.6    0.00       0    61.8
 114    2:10   49.7    75    2.2   152      5.3   993.6    0.00       0    61.7
 114    2:20   49.4    75    0.7    72      2.8   993.6    0.00       0    61.6
 114    2:30   49.9    71    2.0   108      5.5   993.6    0.00       0    61.5
 114    2:40   50.2    70    1.9   116      3.9   993.6    0.00       0    61.4
 114    2:50   49.5    72    1.1   167      3.6   993.9    0.00       0    61.3
 114    3:00   48.9    76    3.6    49      6.4   993.9    0.00       0    61.2
 114    3:10   48.8    74    5.6    45      7.8   993.9    0.00       0    61.1
 114    3:20   49.1    71    1.7   151      4.5   993.6    0.00       0    61.1
 114    3:30   49.5    69    1.4   143      4.2   993.9    0.00       0    61.0

Return to Whale Point graphs page.


Western Regional Climate Center,wrcc@dri.edu